sensor_id;sensor_type;location;lat;lon;timestamp;pressure;altitude;pressure_sealevel;temperature;humidity
69593;BME280;56796;50.122;14.468;2023-01-20T00:03:26;972.59;;;-1.39;83.95
69593;BME280;56796;50.122;14.468;2023-01-20T00:22:43;972.77;;;-1.41;84.26
69593;BME280;56796;50.122;14.468;2023-01-20T00:42:08;973.12;;;-1.47;84.09
69593;BME280;56796;50.122;14.468;2023-01-20T01:01:33;973.28;;;-1.44;84.42
69593;BME280;56796;50.122;14.468;2023-01-20T01:21:04;973.25;;;-1.34;84.66
69593;BME280;56796;50.122;14.468;2023-01-20T01:40:25;973.29;;;-1.35;84.98
69593;BME280;56796;50.122;14.468;2023-01-20T01:59:51;973.47;;;-1.36;85.38
69593;BME280;56796;50.122;14.468;2023-01-20T02:19:23;973.5;;;-1.31;85.44
69593;BME280;56796;50.122;14.468;2023-01-20T02:38:41;973.69;;;-1.32;85.17
69593;BME280;56796;50.122;14.468;2023-01-20T02:58:09;973.82;;;-1.42;85.56
69593;BME280;56796;50.122;14.468;2023-01-20T03:17:32;973.97;;;-1.42;85.47
69593;BME280;56796;50.122;14.468;2023-01-20T03:36:58;974;;;-1.2;85.86
69593;BME280;56796;50.122;14.468;2023-01-20T03:56:24;974.3;;;-1.22;86.09
69593;BME280;56796;50.122;14.468;2023-01-20T04:15:50;974.37;;;-1.17;86.31
69593;BME280;56796;50.122;14.468;2023-01-20T04:35:15;974.55;;;-1.12;86.35
69593;BME280;56796;50.122;14.468;2023-01-20T04:54:40;974.58;;;-0.87;85.9
69593;BME280;56796;50.122;14.468;2023-01-20T05:14:07;974.77;;;-0.84;85.56
69593;BME280;56796;50.122;14.468;2023-01-20T05:33:34;974.93;;;-0.72;85.41
69593;BME280;56796;50.122;14.468;2023-01-20T05:52:59;975.01;;;-0.71;86.04
69593;BME280;56796;50.122;14.468;2023-01-20T06:12:25;975.2;;;-0.65;86.38
69593;BME280;56796;50.122;14.468;2023-01-20T06:31:52;975.47;;;-0.68;86.75
69593;BME280;56796;50.122;14.468;2023-01-20T06:51:18;975.51;;;-0.65;86.9
69593;BME280;56796;50.122;14.468;2023-01-20T07:10:42;975.71;;;-0.49;86.62
69593;BME280;56796;50.122;14.468;2023-01-20T07:30:09;976.05;;;-0.36;86.41
69593;BME280;56796;50.122;14.468;2023-01-20T07:49:35;976.45;;;-0.26;86.85
69593;BME280;56796;50.122;14.468;2023-01-20T08:08:59;976.65;;;-1;91.2
69593;BME280;56796;50.122;14.468;2023-01-20T08:28:34;976.97;;;-0.7;91.68
69593;BME280;56796;50.122;14.468;2023-01-20T08:48:01;977.07;;;-0.14;90.06
69593;BME280;56796;50.122;14.468;2023-01-20T09:07:28;976.98;;;0.17;88.07
69593;BME280;56796;50.122;14.468;2023-01-20T09:26:53;977.14;;;0.38;86.79
69593;BME280;56796;50.122;14.468;2023-01-20T09:46:23;977.12;;;0.42;86.48
69593;BME280;56796;50.122;14.468;2023-01-20T10:05:47;977.34;;;0.05;88.88
69593;BME280;56796;50.122;14.468;2023-01-20T10:25:14;977.42;;;0.4;88.89
69593;BME280;56796;50.122;14.468;2023-01-20T10:44:39;977.49;;;1.05;87.49
69593;BME280;56796;50.122;14.468;2023-01-20T11:04:14;977.64;;;3.01;83.67
69593;BME280;56796;50.122;14.468;2023-01-20T11:23:38;977.82;;;1.66;83.85
69593;BME280;56796;50.122;14.468;2023-01-20T11:43:00;977.76;;;1.37;85.35
69593;BME280;56796;50.122;14.468;2023-01-20T12:02:23;977.93;;;1.13;87.14
69593;BME280;56796;50.122;14.468;2023-01-20T12:21:52;977.99;;;1.14;87.8
69593;BME280;56796;50.122;14.468;2023-01-20T12:41:12;977.96;;;1.24;89.25
69593;BME280;56796;50.122;14.468;2023-01-20T13:00:39;977.94;;;1.47;88.78
69593;BME280;56796;50.122;14.468;2023-01-20T13:20:02;978.17;;;1.62;89.51
69593;BME280;56796;50.122;14.468;2023-01-20T13:58:51;978.48;;;1.23;90.97
69593;BME280;56796;50.122;14.468;2023-01-20T14:18:17;978.58;;;1.13;91.58
69593;BME280;56796;50.122;14.468;2023-01-20T14:37:41;978.72;;;0.88;92.3
69593;BME280;56796;50.122;14.468;2023-01-20T15:16:30;979.14;;;0.31;95.18
69593;BME280;56796;50.122;14.468;2023-01-20T15:35:57;979.43;;;-0.01;96.65
69593;BME280;56796;50.122;14.468;2023-01-20T15:55:13;979.65;;;0.02;97.37
69593;BME280;56796;50.122;14.468;2023-01-20T16:14:38;979.79;;;0.05;97.58
69593;BME280;56796;50.122;14.468;2023-01-20T16:53:29;980.02;;;-0.01;98.08
69593;BME280;56796;50.122;14.468;2023-01-20T17:12:55;980.16;;;-0.02;98.41
69593;BME280;56796;50.122;14.468;2023-01-20T17:32:21;980.35;;;-0.02;98.41
69593;BME280;56796;50.122;14.468;2023-01-20T17:51:46;980.49;;;-0.02;98.45
69593;BME280;56796;50.122;14.468;2023-01-20T18:11:12;980.62;;;-0.07;98.39
69593;BME280;56796;50.122;14.468;2023-01-20T18:30:37;980.7;;;-0.27;98.67
69593;BME280;56796;50.122;14.468;2023-01-20T18:50:03;980.78;;;-0.38;99.14
69593;BME280;56796;50.122;14.468;2023-01-20T19:09:28;980.88;;;-0.45;99.41
69593;BME280;56796;50.122;14.468;2023-01-20T19:28:54;981.07;;;-0.4;99.54
69593;BME280;56796;50.122;14.468;2023-01-20T19:48:18;981.09;;;-0.44;99.13
69593;BME280;56796;50.122;14.468;2023-01-20T20:07:44;981.14;;;-0.35;98.15
69593;BME280;56796;50.122;14.468;2023-01-20T20:27:10;981.28;;;-0.29;96.63
69593;BME280;56796;50.122;14.468;2023-01-20T20:46:36;981.46;;;-0.37;95.34
69593;BME280;56796;50.122;14.468;2023-01-20T21:06:03;981.4;;;-0.51;95.05
69593;BME280;56796;50.122;14.468;2023-01-20T21:25:27;981.29;;;-0.67;95.45
69593;BME280;56796;50.122;14.468;2023-01-20T21:44:53;981.42;;;-0.71;95.22
69593;BME280;56796;50.122;14.468;2023-01-20T22:04:18;981.48;;;-0.73;94.49
69593;BME280;56796;50.122;14.468;2023-01-20T22:23:44;981.46;;;-0.75;93.9
69593;BME280;56796;50.122;14.468;2023-01-20T22:43:09;981.62;;;-0.71;93.38
69593;BME280;56796;50.122;14.468;2023-01-20T23:02:34;981.77;;;-0.78;92.44
69593;BME280;56796;50.122;14.468;2023-01-20T23:22:00;981.88;;;-0.87;92.49
69593;BME280;56796;50.122;14.468;2023-01-20T23:41:25;981.85;;;-0.91;92.77
